Time;durP1;ratioP1;P1;durP2;ratioP2;P2;SDS_P1;SDS_P2;PMS_P1;PMS_P2;Temp;Humidity;BMP_temperature;BMP_pressure;BME280_temperature;BME280_humidity;BME280_pressure;Samples;Min_cycle;Max_cycle;Signal;HPM_P1;HPM_P2
2021/12/07 00:00:29;;;;;;;8.73;4.88;;;;;;;;;;5021996;28;20543;-79
2021/12/07 00:02:55;;;;;;;7.70;3.60;;;;;;;;;;5036861;28;20025;-76
2021/12/07 00:05:21;;;;;;;8.60;3.45;;;;;;;;;;5036409;28;20396;-78
2021/12/07 00:07:47;;;;;;;7.00;3.17;;;;;;;;;;5036782;28;20034;-77
2021/12/07 00:10:14;;;;;;;10.05;3.08;;;;;;;;;;5032794;28;20021;-79
2021/12/07 00:12:43;;;;;;;6.25;2.78;;;;;;;;;;5019929;28;20056;-78
2021/12/07 00:15:11;;;;;;;8.50;3.47;;;;;;;;;;5016129;28;20035;-77
2021/12/07 00:17:37;;;;;;;8.32;3.58;;;;;;;;;;5014703;28;20102;-79
2021/12/07 00:20:08;;;;;;;14.45;5.00;;;;;;;;;;5016463;28;20178;-78
2021/12/07 00:22:34;;;;;;;8.13;3.63;;;;;;;;;;5016541;28;20105;-78
2021/12/07 00:25:00;;;;;;;9.18;3.40;;;;;;;;;;5016326;28;20080;-79
2021/12/07 00:27:27;;;;;;;10.10;4.53;;;;;;;;;;5016038;28;20080;-80
2021/12/07 00:29:53;;;;;;;8.63;5.15;;;;;;;;;;5015463;28;20036;-78
2021/12/07 00:32:26;;;;;;;6.22;3.75;;;;;;;;;;5020179;28;20068;-80
2021/12/07 00:37:24;;;;;;;9.80;4.25;;;;;;;;;;5017293;28;20117;-78
2021/12/07 00:39:50;;;;;;;10.57;3.78;;;;;;;;;;5017199;28;20040;-77
2021/12/07 00:42:17;;;;;;;6.68;2.97;;;;;;;;;;5021916;28;20053;-78
2021/12/07 00:44:43;;;;;;;6.30;3.00;;;;;;;;;;5015152;28;20022;-79
2021/12/07 00:47:14;;;;;;;14.30;3.90;;;;;;;;;;5031478;28;20077;-78
2021/12/07 00:49:41;;;;;;;6.10;2.88;;;;;;;;;;5016545;28;20064;-78
2021/12/07 00:52:07;;;;;;;4.85;3.30;;;;;;;;;;5016718;28;20037;-76
2021/12/07 00:54:33;;;;;;;8.50;2.90;;;;;;;;;;5016109;28;20494;-78
2021/12/07 00:57:02;;;;;;;10.13;3.83;;;;;;;;;;5016467;28;20034;-78
2021/12/07 00:59:28;;;;;;;5.32;3.35;;;;;;;;;;5014690;28;20384;-78
2021/12/07 01:01:54;;;;;;;11.27;3.20;;;;;;;;;;5024988;28;20033;-79
2021/12/07 01:04:20;;;;;;;7.13;3.10;;;;;;;;;;5015955;28;20030;-77
2021/12/07 01:06:59;;;;;;;6.68;3.10;;;;;;;;;;5016842;28;20050;-77
2021/12/07 01:09:43;;;;;;;9.40;3.55;;;;;;;;;;5015946;28;20472;-78
2021/12/07 01:25:56;;;;;;;9.43;3.60;;;;;;;;;;5035350;28;20087;-77
2021/12/07 01:28:32;;;;;;;7.07;2.47;;;;;;;;;;5022052;28;20030;-77
2021/12/07 01:31:19;;;;;;;7.70;3.00;;;;;;;;;;5014871;28;20041;-78
2021/12/07 01:34:02;;;;;;;5.50;2.58;;;;;;;;;;5016471;28;20025;-77
2021/12/07 02:00:28;;;;;;;10.30;2.67;;;;;;;;;;5002151;28;20027;-78
2021/12/07 02:02:54;;;;;;;4.10;2.30;;;;;;;;;;5020115;28;20388;-78
2021/12/07 02:05:20;;;;;;;13.27;3.22;;;;;;;;;;5022882;28;20291;-78
2021/12/07 02:07:46;;;;;;;4.55;2.22;;;;;;;;;;5022336;28;20052;-79
2021/12/07 02:10:19;;;;;;;7.88;2.35;;;;;;;;;;5019766;28;20448;-77
2021/12/07 02:12:49;;;;;;;10.32;2.90;;;;;;;;;;5020402;28;20423;-79
2021/12/07 02:15:16;;;;;;;6.85;2.45;;;;;;;;;;5020270;28;20029;-77
2021/12/07 02:17:43;;;;;;;5.60;2.63;;;;;;;;;;5020105;28;20037;-75
2021/12/07 02:20:10;;;;;;;4.55;2.58;;;;;;;;;;5020292;28;20487;-79
2021/12/07 02:22:37;;;;;;;5.68;2.45;;;;;;;;;;5019336;28;20026;-79
2021/12/07 02:25:06;;;;;;;15.85;3.40;;;;;;;;;;5024061;28;20021;-77
2021/12/07 02:27:33;;;;;;;4.95;2.80;;;;;;;;;;5030030;28;20104;-78
2021/12/07 02:29:59;;;;;;;9.35;3.25;;;;;;;;;;5020537;28;20080;-78
2021/12/07 02:32:26;;;;;;;8.75;2.85;;;;;;;;;;5020825;28;20030;-77
2021/12/07 02:34:59;;;;;;;10.98;2.30;;;;;;;;;;5021817;28;20554;-76
2021/12/07 02:37:26;;;;;;;7.47;3.13;;;;;;;;;;5020665;28;20380;-78
2021/12/07 02:39:52;;;;;;;7.55;2.58;;;;;;;;;;5021207;28;20022;-75
2021/12/07 02:42:19;;;;;;;11.32;2.45;;;;;;;;;;5020200;28;20477;-79
2021/12/07 02:44:45;;;;;;;6.85;2.38;;;;;;;;;;5020372;28;20489;-76
2021/12/07 02:47:11;;;;;;;10.38;2.70;;;;;;;;;;5020830;28;20044;-76
2021/12/07 02:49:40;;;;;;;4.78;2.40;;;;;;;;;;5021144;28;20054;-78
2021/12/07 02:52:06;;;;;;;6.28;2.30;;;;;;;;;;5021008;28;20038;-76
2021/12/07 02:54:33;;;;;;;6.20;2.53;;;;;;;;;;5032121;28;20032;-77
2021/12/07 02:56:59;;;;;;;10.10;3.17;;;;;;;;;;5040598;28;20036;-79
2021/12/07 02:59:27;;;;;;;11.30;3.20;;;;;;;;;;5039711;28;20050;-78
2021/12/07 03:02:01;;;;;;;10.50;2.80;;;;;;;;;;5023975;28;20018;-76
2021/12/07 03:04:34;;;;;;;11.48;2.65;;;;;;;;;;5020267;28;20014;-77
2021/12/07 03:26:11;;;;;;;11.32;2.60;;;;;;;;;;5023291;28;20041;-78
2021/12/07 03:28:43;;;;;;;6.03;2.25;;;;;;;;;;5034306;28;20537;-76
2021/12/07 03:31:09;;;;;;;8.23;2.60;;;;;;;;;;5039923;28;20094;-79
2021/12/07 03:33:36;;;;;;;4.57;2.13;;;;;;;;;;5039800;28;20026;-78
2021/12/07 03:36:02;;;;;;;6.55;2.40;;;;;;;;;;5036799;28;20041;-79
2021/12/07 03:38:28;;;;;;;5.95;2.03;;;;;;;;;;5020447;28;20022;-77
2021/12/07 03:40:54;;;;;;;6.93;2.58;;;;;;;;;;5018889;28;20374;-76
2021/12/07 03:43:21;;;;;;;6.45;2.53;;;;;;;;;;5019014;28;20022;-78
2021/12/07 03:45:47;;;;;;;5.38;2.20;;;;;;;;;;5019462;28;20109;-79
2021/12/07 03:48:14;;;;;;;4.68;2.50;;;;;;;;;;5019688;28;20040;-78
2021/12/07 03:50:40;;;;;;;9.82;3.10;;;;;;;;;;5019680;28;20526;-78
2021/12/07 03:53:06;;;;;;;6.43;2.55;;;;;;;;;;5019299;28;20061;-77
2021/12/07 03:55:33;;;;;;;5.68;2.20;;;;;;;;;;5019148;28;20038;-77
2021/12/07 03:57:59;;;;;;;9.38;2.38;;;;;;;;;;5019044;28;20105;-78
2021/12/07 04:00:26;;;;;;;19.95;3.13;;;;;;;;;;5019019;28;20030;-77
2021/12/07 04:02:53;;;;;;;10.35;2.50;;;;;;;;;;5018189;28;20026;-78
2021/12/07 04:05:21;;;;;;;4.95;2.33;;;;;;;;;;5018186;28;20468;-77
2021/12/07 04:07:48;;;;;;;6.03;2.15;;;;;;;;;;5017812;28;20033;-79
2021/12/07 04:10:16;;;;;;;11.13;2.78;;;;;;;;;;5018478;28;20034;-77
2021/12/07 04:12:42;;;;;;;6.35;2.20;;;;;;;;;;5018492;28;20053;-77
2021/12/07 04:15:10;;;;;;;9.25;2.92;;;;;;;;;;5018236;28;20034;-80
2021/12/07 04:17:37;;;;;;;7.00;2.30;;;;;;;;;;5023706;28;20080;-79
2021/12/07 04:20:04;;;;;;;7.55;2.70;;;;;;;;;;5038158;28;20021;-79
2021/12/07 04:22:30;;;;;;;6.47;2.55;;;;;;;;;;5037760;28;20021;-78
2021/12/07 04:24:57;;;;;;;4.15;2.03;;;;;;;;;;5021889;28;20117;-78
2021/12/07 04:27:23;;;;;;;6.40;2.05;;;;;;;;;;5017775;28;20033;-78
2021/12/07 04:29:49;;;;;;;4.10;2.20;;;;;;;;;;5019069;28;20025;-78
2021/12/07 04:32:15;;;;;;;5.18;2.20;;;;;;;;;;5022082;28;20500;-79
2021/12/07 04:34:41;;;;;;;9.50;3.08;;;;;;;;;;5022069;28;20033;-76
2021/12/07 04:37:07;;;;;;;7.55;2.28;;;;;;;;;;5020105;28;20108;-79
2021/12/07 04:39:34;;;;;;;10.23;2.80;;;;;;;;;;5017651;28;20028;-78
2021/12/07 04:42:00;;;;;;;11.85;2.75;;;;;;;;;;5019228;28;20021;-76
2021/12/07 04:44:27;;;;;;;3.88;2.10;;;;;;;;;;5018774;28;20481;-79
2021/12/07 04:47:09;;;;;;;6.35;2.05;;;;;;;;;;5018481;28;20439;-79
2021/12/07 04:57:45;;;;;;;3.85;1.75;;;;;;;;;;5018810;28;20148;-77
2021/12/07 05:00:20;;;;;;;6.75;2.30;;;;;;;;;;5018762;28;20389;-78
2021/12/07 05:02:52;;;;;;;4.40;2.67;;;;;;;;;;5020013;28;20056;-78
2021/12/07 05:05:19;;;;;;;5.95;2.20;;;;;;;;;;5018127;28;20588;-80
2021/12/07 05:07:50;;;;;;;4.28;1.80;;;;;;;;;;5024742;28;20048;-77
2021/12/07 05:10:27;;;;;;;3.17;1.80;;;;;;;;;;5024244;28;20029;-77
2021/12/07 05:15:33;;;;;;;1.67;1.58;;;;;;;;;;5020456;28;20064;-76
2021/12/07 05:39:42;;;;;;;5.85;1.50;;;;;;;;;;5009559;28;20093;-77
2021/12/07 05:42:08;;;;;;;5.07;1.80;;;;;;;;;;5018820;28;20059;-78
2021/12/07 05:44:35;;;;;;;3.15;1.67;;;;;;;;;;5017034;28;20085;-80
2021/12/07 05:47:03;;;;;;;1.67;1.58;;;;;;;;;;5017523;28;20041;-76
2021/12/07 05:49:29;;;;;;;2.97;1.58;;;;;;;;;;5036204;28;20052;-77
2021/12/07 05:51:55;;;;;;;1.50;1.40;;;;;;;;;;5037799;28;20061;-77
2021/12/07 05:54:21;;;;;;;1.58;1.48;;;;;;;;;;5030244;28;20037;-78
2021/12/07 05:56:47;;;;;;;4.70;1.75;;;;;;;;;;5017690;28;20519;-78
2021/12/07 05:59:14;;;;;;;3.38;2.33;;;;;;;;;;5021869;28;20084;-77
2021/12/07 06:01:40;;;;;;;2.45;1.98;;;;;;;;;;5017477;28;20097;-76
2021/12/07 06:04:06;;;;;;;4.20;1.83;;;;;;;;;;5017410;28;20542;-76
2021/12/07 06:06:32;;;;;;;3.40;1.55;;;;;;;;;;5017726;28;20033;-78
2021/12/07 06:08:58;;;;;;;3.92;1.40;;;;;;;;;;5018221;28;20030;-77
2021/12/07 06:11:24;;;;;;;1.40;1.30;;;;;;;;;;5018941;28;20542;-78
2021/12/07 06:13:51;;;;;;;2.40;1.50;;;;;;;;;;5018667;28;20373;-77
2021/12/07 06:16:17;;;;;;;1.23;1.23;;;;;;;;;;5018361;28;20032;-77
2021/12/07 06:18:44;;;;;;;1.13;1.13;;;;;;;;;;5018721;28;20396;-77
2021/12/07 06:21:10;;;;;;;2.13;1.48;;;;;;;;;;5019042;28;20037;-77
2021/12/07 06:23:36;;;;;;;3.63;1.50;;;;;;;;;;5019285;28;20076;-78
2021/12/07 06:26:03;;;;;;;3.88;1.38;;;;;;;;;;5019445;28;20491;-76
2021/12/07 06:28:29;;;;;;;1.48;1.20;;;;;;;;;;5026886;28;20040;-79
2021/12/07 06:30:56;;;;;;;1.27;1.27;;;;;;;;;;5019257;28;20026;-78
2021/12/07 06:33:23;;;;;;;3.63;1.52;;;;;;;;;;5018653;28;20431;-76
2021/12/07 06:35:50;;;;;;;1.38;1.27;;;;;;;;;;5018726;28;20026;-78
2021/12/07 06:38:18;;;;;;;2.80;1.67;;;;;;;;;;5018941;28;20060;-77
2021/12/07 06:40:44;;;;;;;1.42;1.33;;;;;;;;;;5016646;28;20030;-75
2021/12/07 06:43:10;;;;;;;4.22;1.30;;;;;;;;;;5021318;28;20014;-80
2021/12/07 06:45:37;;;;;;;1.23;1.13;;;;;;;;;;5022506;28;20030;-79
2021/12/07 06:48:03;;;;;;;4.07;1.80;;;;;;;;;;5022868;28;20473;-76
2021/12/07 06:50:29;;;;;;;3.42;1.52;;;;;;;;;;5022807;28;20056;-79
2021/12/07 06:52:55;;;;;;;1.75;1.55;;;;;;;;;;5022557;28;20026;-77
2021/12/07 06:55:22;;;;;;;3.47;1.73;;;;;;;;;;5021738;28;20022;-78
2021/12/07 06:57:48;;;;;;;2.50;1.75;;;;;;;;;;5024612;28;20042;-79
2021/12/07 07:00:15;;;;;;;5.30;2.10;;;;;;;;;;5035495;28;20081;-80
2021/12/07 07:02:41;;;;;;;1.60;1.50;;;;;;;;;;5022103;28;20026;-75
2021/12/07 07:05:08;;;;;;;1.60;1.40;;;;;;;;;;5033135;28;20034;-79
2021/12/07 07:07:34;;;;;;;4.43;1.95;;;;;;;;;;5021820;28;20480;-77
2021/12/07 07:10:00;;;;;;;4.05;2.80;;;;;;;;;;5026469;28;20029;-74
2021/12/07 07:12:27;;;;;;;3.63;1.92;;;;;;;;;;5040876;28;20033;-79
2021/12/07 07:14:53;;;;;;;4.60;2.50;;;;;;;;;;5022142;28;20032;-77
2021/12/07 07:17:19;;;;;;;3.08;2.05;;;;;;;;;;5020952;28;20551;-78
2021/12/07 07:19:45;;;;;;;3.28;1.80;;;;;;;;;;5020956;28;20025;-77
2021/12/07 07:22:11;;;;;;;2.92;1.50;;;;;;;;;;5021314;28;20026;-79
2021/12/07 07:24:37;;;;;;;3.70;2.47;;;;;;;;;;5020708;28;20033;-77
2021/12/07 07:27:04;;;;;;;4.10;1.77;;;;;;;;;;5019324;28;20538;-78
2021/12/07 07:29:30;;;;;;;2.97;1.80;;;;;;;;;;5019032;28;20296;-77
2021/12/07 07:31:58;;;;;;;3.78;1.45;;;;;;;;;;5034606;28;20031;-78
2021/12/07 07:34:25;;;;;;;2.08;1.20;;;;;;;;;;5028190;28;20033;-78
2021/12/07 07:36:51;;;;;;;2.60;1.60;;;;;;;;;;5020993;28;20030;-76
2021/12/07 07:39:17;;;;;;;4.93;1.50;;;;;;;;;;5016670;28;20094;-78
2021/12/07 07:41:43;;;;;;;2.40;1.40;;;;;;;;;;5005487;28;20061;-75
2021/12/07 07:44:09;;;;;;;1.20;1.20;;;;;;;;;;5022147;28;20046;-77
2021/12/07 07:46:35;;;;;;;5.80;1.58;;;;;;;;;;5021320;28;20045;-74
2021/12/07 07:49:02;;;;;;;5.25;1.40;;;;;;;;;;5021239;28;20046;-79
2021/12/07 07:51:28;;;;;;;1.63;1.40;;;;;;;;;;5022262;28;20036;-77
2021/12/07 07:53:56;;;;;;;3.70;1.60;;;;;;;;;;5023297;28;20073;-76
2021/12/07 07:56:22;;;;;;;1.40;1.30;;;;;;;;;;5027871;28;20026;-75
2021/12/07 07:58:48;;;;;;;1.88;1.50;;;;;;;;;;5019538;28;20100;-74
2021/12/07 08:01:15;;;;;;;1.80;1.50;;;;;;;;;;5018920;28;20056;-76
2021/12/07 08:03:41;;;;;;;2.65;1.33;;;;;;;;;;5012520;28;20081;-78
2021/12/07 08:06:07;;;;;;;1.42;1.33;;;;;;;;;;5016753;28;20488;-75
2021/12/07 08:08:33;;;;;;;2.10;1.42;;;;;;;;;;5019069;28;20034;-73
2021/12/07 08:11:01;;;;;;;2.88;1.50;;;;;;;;;;5019758;28;20071;-76
2021/12/07 08:13:29;;;;;;;2.55;1.45;;;;;;;;;;5020345;28;20052;-76
2021/12/07 08:15:55;;;;;;;3.90;1.50;;;;;;;;;;5022395;28;20014;-73
2021/12/07 08:18:21;;;;;;;2.53;1.33;;;;;;;;;;5021685;28;20420;-73
2021/12/07 08:20:47;;;;;;;4.20;2.55;;;;;;;;;;5020791;28;20029;-75
2021/12/07 08:23:13;;;;;;;4.20;1.98;;;;;;;;;;5017485;28;20033;-76
2021/12/07 08:25:42;;;;;;;4.80;2.33;;;;;;;;;;5018493;28;20030;-74
2021/12/07 08:28:11;;;;;;;2.33;1.77;;;;;;;;;;5019955;28;20033;-76
2021/12/07 08:30:38;;;;;;;3.38;1.80;;;;;;;;;;5018283;28;20030;-72
2021/12/07 08:33:04;;;;;;;4.93;2.03;;;;;;;;;;5024224;28;20034;-72
2021/12/07 08:35:31;;;;;;;3.83;1.92;;;;;;;;;;5026611;28;20037;-74
2021/12/07 08:37:58;;;;;;;2.33;1.80;;;;;;;;;;5024400;28;20079;-76
2021/12/07 08:40:53;;;;;;;6.63;3.58;;;;;;;;;;5022796;28;20121;-76
2021/12/07 08:43:46;;;;;;;8.48;3.05;;;;;;;;;;5019362;28;20037;-77
2021/12/07 08:46:27;;;;;;;6.43;2.13;;;;;;;;;;5019123;28;20033;-78
2021/12/07 08:48:54;;;;;;;4.38;1.60;;;;;;;;;;5019932;28;20023;-76
2021/12/07 08:51:20;;;;;;;1.63;1.48;;;;;;;;;;5018774;28;20026;-77
2021/12/07 08:53:53;;;;;;;2.70;1.52;;;;;;;;;;5016342;28;20056;-77
2021/12/07 09:01:49;;;;;;;1.85;1.75;;;;;;;;;;5016101;28;20036;-76
2021/12/07 09:04:17;;;;;;;2.05;1.70;;;;;;;;;;5025440;28;20022;-75
2021/12/07 09:06:44;;;;;;;2.17;1.60;;;;;;;;;;5020207;28;20032;-77
2021/12/07 09:09:10;;;;;;;4.90;2.05;;;;;;;;;;5018670;28;20492;-75
2021/12/07 09:11:36;;;;;;;4.10;1.67;;;;;;;;;;5019812;28;20034;-73
2021/12/07 09:14:02;;;;;;;3.42;1.67;;;;;;;;;;5020873;28;20033;-77
2021/12/07 09:16:29;;;;;;;5.88;3.53;;;;;;;;;;5016708;28;20045;-75
2021/12/07 09:18:55;;;;;;;5.78;2.40;;;;;;;;;;5020870;28;20026;-74
2021/12/07 09:21:21;;;;;;;3.90;2.00;;;;;;;;;;5019603;28;20113;-71
2021/12/07 09:23:47;;;;;;;4.97;2.65;;;;;;;;;;5023344;28;20057;-73
2021/12/07 09:26:13;;;;;;;3.47;2.17;;;;;;;;;;5018372;28;20124;-75
2021/12/07 09:28:40;;;;;;;3.42;2.40;;;;;;;;;;5014427;28;20053;-77
2021/12/07 09:31:07;;;;;;;6.18;2.40;;;;;;;;;;5032066;28;20032;-75
2021/12/07 09:33:34;;;;;;;7.13;2.42;;;;;;;;;;5021217;28;20104;-77
2021/12/07 09:36:00;;;;;;;5.00;2.75;;;;;;;;;;5018409;28;20041;-77
2021/12/07 09:38:26;;;;;;;11.52;3.88;;;;;;;;;;5017170;28;20105;-74
2021/12/07 09:40:53;;;;;;;12.10;3.78;;;;;;;;;;5016942;28;20041;-77
2021/12/07 09:43:19;;;;;;;8.05;2.92;;;;;;;;;;5014087;28;20026;-75
2021/12/07 09:45:46;;;;;;;17.40;3.58;;;;;;;;;;5016254;28;20121;-77
2021/12/07 09:48:13;;;;;;;14.27;4.70;;;;;;;;;;5020916;28;20079;-76
2021/12/07 09:50:40;;;;;;;17.75;4.03;;;;;;;;;;5014929;28;20923;-75
2021/12/07 09:53:07;;;;;;;25.08;5.10;;;;;;;;;;5027221;28;20021;-76
2021/12/07 09:55:34;;;;;;;15.13;4.38;;;;;;;;;;5031757;28;20400;-78
2021/12/07 09:58:00;;;;;;;18.13;5.78;;;;;;;;;;5017667;28;20129;-74
2021/12/07 10:00:27;;;;;;;14.73;4.50;;;;;;;;;;5016854;28;20029;-75
2021/12/07 10:02:54;;;;;;;16.83;4.40;;;;;;;;;;5019240;28;20034;-76
2021/12/07 10:05:20;;;;;;;11.52;3.85;;;;;;;;;;5016427;28;20353;-77
2021/12/07 10:07:47;;;;;;;11.55;4.72;;;;;;;;;;5017501;28;20034;-77
2021/12/07 10:10:22;;;;;;;13.60;4.88;;;;;;;;;;5016246;28;20056;-76
2021/12/07 10:12:48;;;;;;;15.93;4.63;;;;;;;;;;5016907;28;20029;-77
2021/12/07 10:15:15;;;;;;;23.92;5.05;;;;;;;;;;5017593;28;20045;-77
2021/12/07 10:17:42;;;;;;;15.77;5.28;;;;;;;;;;5021723;28;20038;-78
2021/12/07 10:20:33;;;;;;;14.13;3.28;;;;;;;;;;5023607;28;20149;-78
2021/12/07 10:23:05;;;;;;;9.02;3.78;;;;;;;;;;5017392;28;20026;-78
2021/12/07 10:25:31;;;;;;;10.30;3.22;;;;;;;;;;5019656;28;20100;-76
2021/12/07 10:27:57;;;;;;;9.30;3.92;;;;;;;;;;5020129;28;20022;-78
2021/12/07 10:30:24;;;;;;;11.27;3.53;;;;;;;;;;5024301;28;20049;-79
2021/12/07 10:33:16;;;;;;;6.70;3.22;;;;;;;;;;5020769;28;20040;-78
2021/12/07 10:35:42;;;;;;;8.77;3.25;;;;;;;;;;5002927;28;20034;-78
2021/12/07 10:38:10;;;;;;;10.60;3.50;;;;;;;;;;5017624;28;20026;-77
2021/12/07 10:40:36;;;;;;;14.25;4.00;;;;;;;;;;5025525;28;20030;-76
2021/12/07 10:43:03;;;;;;;8.52;3.90;;;;;;;;;;5023931;28;20104;-79
2021/12/07 10:45:29;;;;;;;19.77;4.40;;;;;;;;;;5029881;28;20030;-78
2021/12/07 10:47:55;;;;;;;16.75;3.42;;;;;;;;;;5019348;28;20104;-78
2021/12/07 10:50:22;;;;;;;14.18;4.13;;;;;;;;;;5024740;28;20050;-76
2021/12/07 10:52:48;;;;;;;9.95;3.35;;;;;;;;;;5023157;28;20030;-76
2021/12/07 10:55:15;;;;;;;7.68;3.63;;;;;;;;;;5023735;28;20057;-74
2021/12/07 10:57:52;;;;;;;16.98;4.90;;;;;;;;;;5020317;28;20045;-75
2021/12/07 11:00:20;;;;;;;14.15;3.25;;;;;;;;;;5024813;28;20058;-76
2021/12/07 11:02:49;;;;;;;14.82;4.30;;;;;;;;;;5030144;28;20101;-78
2021/12/07 11:05:20;;;;;;;13.50;4.10;;;;;;;;;;5022695;28;20056;-75
2021/12/07 11:07:47;;;;;;;10.02;3.83;;;;;;;;;;5021342;28;20538;-78
2021/12/07 11:10:21;;;;;;;10.88;3.13;;;;;;;;;;5026796;28;20034;-78
2021/12/07 11:12:57;;;;;;;9.82;4.13;;;;;;;;;;5023305;28;20506;-77
2021/12/07 11:15:25;;;;;;;;;;;;;;;;;;5024682;28;20033;-76
2021/12/07 11:17:53;;;;;;;10.43;3.38;;;;;;;;;;5018559;28;19914;-76
2021/12/07 11:20:19;;;;;;;8.70;2.45;;;;;;;;;;5018731;28;20029;-77
2021/12/07 11:22:59;;;;;;;6.32;2.63;;;;;;;;;;5018445;28;20041;-79
2021/12/07 11:31:42;;;;;;;7.05;2.92;;;;;;;;;;4981858;28;20027;-76
2021/12/07 11:34:11;;;;;;;6.95;2.83;;;;;;;;;;5008979;28;20048;-77
2021/12/07 11:36:40;;;;;;;9.00;3.15;;;;;;;;;;5025078;28;20092;-75
2021/12/07 11:39:25;;;;;;;10.27;3.13;;;;;;;;;;5025100;28;20034;-76
2021/12/07 11:42:05;;;;;;;13.13;3.50;;;;;;;;;;5017659;28;20033;-73
2021/12/07 11:44:33;;;;;;;16.17;4.70;;;;;;;;;;5022244;28;20160;-76
2021/12/07 11:47:07;;;;;;;12.88;4.60;;;;;;;;;;5020036;28;20033;-76
2021/12/07 11:49:34;;;;;;;10.43;3.40;;;;;;;;;;5015602;28;20133;-78
2021/12/07 11:52:01;;;;;;;10.32;4.35;;;;;;;;;;5015610;28;20030;-76
2021/12/07 11:54:32;;;;;;;13.77;4.47;;;;;;;;;;5022831;28;20045;-73
2021/12/07 11:57:01;;;;;;;13.02;4.38;;;;;;;;;;5029602;28;20042;-75
2021/12/07 11:59:27;;;;;;;13.15;4.82;;;;;;;;;;5035461;28;20026;-73
2021/12/07 12:01:53;;;;;;;15.23;3.75;;;;;;;;;;5024051;28;20101;-75
2021/12/07 12:04:23;;;;;;;17.10;4.85;;;;;;;;;;5023804;28;20022;-73
2021/12/07 12:06:53;;;;;;;18.15;4.68;;;;;;;;;;5024275;28;20082;-73
2021/12/07 12:09:20;;;;;;;12.85;3.28;;;;;;;;;;5025687;28;20022;-74
2021/12/07 12:12:22;;;;;;;9.05;4.20;;;;;;;;;;5024604;28;20048;-75
2021/12/07 12:14:57;;;;;;;9.05;2.78;;;;;;;;;;4934572;29;20040;-76
2021/12/07 12:17:46;;;;;;;12.88;4.25;;;;;;;;;;5012269;28;20053;-73
2021/12/07 12:20:26;;;;;;;13.23;3.67;;;;;;;;;;5019561;28;20026;-75
2021/12/07 12:23:11;;;;;;;5.43;3.17;;;;;;;;;;5023053;28;20022;-76
2021/12/07 12:25:38;;;;;;;15.77;3.65;;;;;;;;;;5021461;28;20120;-77
2021/12/07 12:28:04;;;;;;;7.38;3.22;;;;;;;;;;5013267;28;20080;-75
2021/12/07 12:30:32;;;;;;;8.65;3.15;;;;;;;;;;5018485;28;20033;-76
2021/12/07 12:33:02;;;;;;;13.25;3.83;;;;;;;;;;5021396;28;20033;-75
2021/12/07 12:35:30;;;;;;;8.93;3.92;;;;;;;;;;5022290;28;20365;-74
2021/12/07 12:37:57;;;;;;;4.30;2.40;;;;;;;;;;5021511;28;20033;-74
2021/12/07 12:40:24;;;;;;;8.65;2.25;;;;;;;;;;5020785;28;20026;-76
2021/12/07 12:42:52;;;;;;;7.43;2.70;;;;;;;;;;5015052;28;20037;-76
2021/12/07 12:45:22;;;;;;;13.30;3.35;;;;;;;;;;5014918;28;20550;-75
2021/12/07 12:47:56;;;;;;;10.55;3.88;;;;;;;;;;5016590;28;20041;-74
2021/12/07 12:50:27;;;;;;;10.57;3.95;;;;;;;;;;5000420;28;20046;-76
2021/12/07 12:52:55;;;;;;;7.72;2.63;;;;;;;;;;5022136;28;20029;-76
2021/12/07 12:55:39;;;;;;;9.52;4.22;;;;;;;;;;5009075;28;20034;-77
2021/12/07 12:58:14;;;;;;;6.03;2.90;;;;;;;;;;5019195;28;20315;-73
2021/12/07 13:00:59;;;;;;;10.40;3.80;;;;;;;;;;5020877;28;20117;-75
2021/12/07 13:03:25;;;;;;;14.23;4.38;;;;;;;;;;5021959;28;20034;-78
2021/12/07 13:06:01;;;;;;;11.45;3.30;;;;;;;;;;5020150;28;20088;-74
2021/12/07 13:08:28;;;;;;;7.18;3.40;;;;;;;;;;5021898;28;20068;-79
2021/12/07 13:10:58;;;;;;;9.27;3.15;;;;;;;;;;5019997;28;20038;-75
2021/12/07 13:13:25;;;;;;;15.95;3.88;;;;;;;;;;5012359;28;20021;-76
2021/12/07 13:15:51;;;;;;;9.07;3.45;;;;;;;;;;5010060;28;20034;-76
2021/12/07 13:18:27;;;;;;;7.82;3.65;;;;;;;;;;5011233;28;20054;-77
2021/12/07 13:20:53;;;;;;;10.80;3.58;;;;;;;;;;5016369;28;20102;-77
2021/12/07 13:23:19;;;;;;;10.73;4.15;;;;;;;;;;5016158;28;20030;-78
2021/12/07 13:25:48;;;;;;;13.40;4.18;;;;;;;;;;5017885;28;20026;-77
2021/12/07 13:28:35;;;;;;;15.10;4.22;;;;;;;;;;5013822;28;20098;-78
2021/12/07 13:31:03;;;;;;;10.75;3.63;;;;;;;;;;5014033;28;20026;-76
2021/12/07 13:33:35;;;;;;;7.38;3.13;;;;;;;;;;5012696;28;20026;-76
2021/12/07 13:36:21;;;;;;;9.90;3.70;;;;;;;;;;5013788;28;20030;-75
2021/12/07 13:38:47;;;;;;;;;;;;;;;;;;5014450;28;20089;-76
2021/12/07 13:41:16;;;;;;;10.63;3.28;;;;;;;;;;5019826;28;19956;-76
2021/12/07 13:43:43;;;;;;;5.55;3.05;;;;;;;;;;5023144;28;20447;-77
2021/12/07 13:46:13;;;;;;;8.68;2.80;;;;;;;;;;5023390;28;20060;-77
2021/12/07 13:48:42;;;;;;;14.70;4.93;;;;;;;;;;5020325;28;20040;-73
2021/12/07 13:51:09;;;;;;;13.20;4.15;;;;;;;;;;5016378;28;20058;-76
2021/12/07 13:53:36;;;;;;;9.93;2.97;;;;;;;;;;5018210;28;20033;-77
2021/12/07 13:56:02;;;;;;;8.55;3.13;;;;;;;;;;5022406;28;20081;-75
2021/12/07 13:58:33;;;;;;;6.72;3.58;;;;;;;;;;5016898;28;20076;-78
2021/12/07 14:01:00;;;;;;;9.13;2.85;;;;;;;;;;5020623;28;20026;-78
2021/12/07 14:03:26;;;;;;;7.47;2.95;;;;;;;;;;5017086;28;20037;-77
2021/12/07 14:05:52;;;;;;;7.40;2.40;;;;;;;;;;5015164;28;20064;-75
2021/12/07 14:08:18;;;;;;;6.93;3.22;;;;;;;;;;5020897;28;20052;-74
2021/12/07 14:10:46;;;;;;;3.70;2.83;;;;;;;;;;5021198;28;20107;-78
2021/12/07 14:13:14;;;;;;;6.43;2.53;;;;;;;;;;5015254;28;20033;-77
2021/12/07 14:15:41;;;;;;;6.57;2.13;;;;;;;;;;5016498;28;20022;-77
2021/12/07 14:18:09;;;;;;;5.68;2.33;;;;;;;;;;5010985;28;20052;-76
2021/12/07 14:20:37;;;;;;;4.35;3.03;;;;;;;;;;5017511;28;20022;-75
2021/12/07 14:23:22;;;;;;;6.03;2.60;;;;;;;;;;5022468;28;20030;-74
2021/12/07 14:25:48;;;;;;;4.45;2.65;;;;;;;;;;5010600;28;20041;-77
2021/12/07 14:28:32;;;;;;;2.72;2.40;;;;;;;;;;5017247;28;20153;-76
2021/12/07 14:31:15;;;;;;;2.47;2.00;;;;;;;;;;5019507;28;20038;-76
2021/12/07 14:33:52;;;;;;;4.05;2.55;;;;;;;;;;5018504;28;20033;-79
2021/12/07 14:36:23;;;;;;;5.65;2.17;;;;;;;;;;5005849;28;20026;-79
2021/12/07 14:38:50;;;;;;;4.78;2.10;;;;;;;;;;5016219;28;20037;-79
2021/12/07 14:41:18;;;;;;;4.03;2.25;;;;;;;;;;5018724;28;20034;-76
2021/12/07 14:43:44;;;;;;;4.50;2.00;;;;;;;;;;5016809;28;20026;-76
2021/12/07 14:46:13;;;;;;;17.63;8.85;;;;;;;;;;5020034;28;20807;-75
2021/12/07 14:48:40;;;;;;;18.15;7.38;;;;;;;;;;5021862;28;20037;-72
2021/12/07 14:51:07;;;;;;;17.55;6.63;;;;;;;;;;5021400;28;20042;-78
2021/12/07 14:53:35;;;;;;;5.72;2.65;;;;;;;;;;5017365;28;20041;-77
2021/12/07 14:56:01;;;;;;;26.63;10.63;;;;;;;;;;5022325;28;20029;-74
2021/12/07 14:58:30;;;;;;;9.27;2.92;;;;;;;;;;5021722;28;20034;-76
2021/12/07 15:00:57;;;;;;;13.88;7.28;;;;;;;;;;5025932;28;20087;-79
2021/12/07 15:03:23;;;;;;;14.10;5.40;;;;;;;;;;5019883;28;20041;-76
2021/12/07 15:05:49;;;;;;;15.98;7.55;;;;;;;;;;5023198;28;20026;-76
2021/12/07 15:08:15;;;;;;;7.53;3.67;;;;;;;;;;5017742;28;20029;-73
2021/12/07 15:10:41;;;;;;;11.38;5.07;;;;;;;;;;5025475;28;20065;-73
2021/12/07 15:13:09;;;;;;;6.32;3.08;;;;;;;;;;5026761;28;20038;-76
2021/12/07 15:15:35;;;;;;;3.53;2.63;;;;;;;;;;5024423;28;20079;-79
2021/12/07 15:18:01;;;;;;;3.20;2.00;;;;;;;;;;5025119;28;20033;-77
2021/12/07 15:20:29;;;;;;;6.22;3.22;;;;;;;;;;5023805;28;20484;-78
2021/12/07 15:22:55;;;;;;;3.50;2.60;;;;;;;;;;5024380;28;20100;-78
2021/12/07 15:25:22;;;;;;;3.75;1.90;;;;;;;;;;5021611;28;20022;-75
2021/12/07 15:27:51;;;;;;;3.13;2.17;;;;;;;;;;5018705;28;20029;-76
2021/12/07 15:30:18;;;;;;;4.20;2.25;;;;;;;;;;5017042;28;20068;-76
2021/12/07 15:32:44;;;;;;;6.82;3.08;;;;;;;;;;5033783;28;20121;-75
2021/12/07 15:35:19;;;;;;;3.53;2.15;;;;;;;;;;5017429;28;20105;-76
2021/12/07 15:37:45;;;;;;;3.70;2.42;;;;;;;;;;5023204;28;20036;-77
2021/12/07 15:40:12;;;;;;;5.97;1.92;;;;;;;;;;5021210;28;20041;-74
2021/12/07 15:42:38;;;;;;;5.45;2.00;;;;;;;;;;5022569;28;20057;-78
2021/12/07 15:45:06;;;;;;;2.33;1.80;;;;;;;;;;5022896;28;20057;-79
2021/12/07 15:47:34;;;;;;;2.72;1.92;;;;;;;;;;5018438;28;20041;-79
2021/12/07 15:50:02;;;;;;;5.55;2.40;;;;;;;;;;5023100;28;20042;-76
2021/12/07 15:52:32;;;;;;;4.80;2.80;;;;;;;;;;5016196;28;20548;-77
2021/12/07 15:55:05;;;;;;;4.07;1.92;;;;;;;;;;5019878;28;20037;-77
2021/12/07 15:57:51;;;;;;;1.80;1.70;;;;;;;;;;5015580;28;20034;-77
2021/12/07 16:00:22;;;;;;;3.70;2.40;;;;;;;;;;5019293;28;20376;-77
2021/12/07 16:02:53;;;;;;;2.00;1.80;;;;;;;;;;5020130;28;20030;-77
2021/12/07 16:05:19;;;;;;;2.13;1.92;;;;;;;;;;5013974;28;20038;-79
2021/12/07 16:07:46;;;;;;;4.15;1.90;;;;;;;;;;5012435;28;20113;-76
2021/12/07 16:10:22;;;;;;;3.20;2.20;;;;;;;;;;5013208;28;20798;-77
2021/12/07 16:13:12;;;;;;;3.03;2.13;;;;;;;;;;5004247;28;20029;-77
2021/12/07 16:15:39;;;;;;;4.80;3.70;;;;;;;;;;5015918;28;20040;-77
2021/12/07 16:18:05;;;;;;;5.30;3.60;;;;;;;;;;5011402;28;20021;-76
2021/12/07 16:20:32;;;;;;;3.45;2.55;;;;;;;;;;5016304;28;20109;-78
2021/12/07 16:22:58;;;;;;;2.83;2.53;;;;;;;;;;5016509;28;20564;-77
2021/12/07 16:25:24;;;;;;;14.98;9.88;;;;;;;;;;5017361;28;20103;-77
2021/12/07 16:27:50;;;;;;;4.35;2.75;;;;;;;;;;5013169;28;20039;-76
2021/12/07 16:30:17;;;;;;;4.82;3.47;;;;;;;;;;5028505;28;20044;-77
2021/12/07 16:32:44;;;;;;;9.50;4.22;;;;;;;;;;5010589;28;20080;-78